< Typhoon 197106 1971 Season Typhoon 197108 >
Typhoon 197107 (CARLA)
General InformationTrack Information on Google Maps || Disaster Info.ResourceGoogle EarthGE AnimationAtom FeedGeoJSON
Detalied Best Track (Time Zone = UTC)
Year Month Day Hour Lat. Long. Pressure (hPa) Wind (kt) Class Image Chart
1971 5 17 00 10.0 128.9 1008 0 2 -- Chart
1971 5 17 06 10.0 129.3 1004 0 2 -- Chart
1971 5 17 12 10.0 129.6 1004 0 2 -- Chart
1971 5 17 18 10.2 129.8 1004 0 2 -- Chart
1971 5 18 00 10.5 130.0 1004 0 2 -- Chart
1971 5 18 06 11.5 129.6 1004 0 2 -- Chart
1971 5 18 12 12.1 129.1 1004 0 2 -- Chart
1971 5 18 18 12.8 128.5 1004 0 2 -- Chart
1971 5 19 00 13.6 128.2 1004 0 2 -- Chart
1971 5 19 06 14.6 127.7 1000 0 9 -- Chart
1971 5 19 12 15.2 127.3 1000 0 9 -- Chart
1971 5 19 18 16.0 127.2 998 0 9 -- Chart
1971 5 20 00 16.8 127.0 1000 0 9 -- Chart
1971 5 20 06 17.5 126.5 1000 0 9 -- Chart
1971 5 20 12 18.3 126.3 1000 0 9 -- Chart
1971 5 20 18 19.0 126.2 1000 0 9 -- Chart
1971 5 21 00 19.7 126.1 995 0 9 -- Chart
1971 5 21 06 20.8 126.2 998 0 9 -- Chart
1971 5 21 12 21.3 126.2 1000 0 9 -- Chart
1971 5 21 18 22.5 126.5 1004 0 9 -- Chart
1971 5 22 00 23.8 126.8 1004 0 9 -- Chart
1971 5 22 06 25.0 127.8 1005 0 9 -- Chart
1971 5 22 12 26.5 129.1 1006 0 2 -- Chart
1971 5 22 18 28.4 131.2 1006 0 2 -- Chart
1971 5 23 00 30.0 132.4 1006 0 2 -- Chart
1971 5 23 06 30.9 133.3 1004 0 2 -- Chart
1971 5 23 12 31.7 134.1 1004 0 2 -- Chart
1971 5 23 18 32.6 134.8 1006 0 2 -- Chart
1971 5 24 00 33.0 137.0 1008 0 6 -- Chart
1971 5 24 06 34.0 139.0 1008 0 6 -- Chart
Japan Meteorological Agency Best Track Data | Correction Date : 1989-06-01
< Typhoon 197106 1971 Season Typhoon 197108 >

Help